Arcola, Virginia
Current Conditions -  °F | °C
As of 6:52 AM on Thursday 18 Dec 2014 (Local Time) from KIAD Reporting Station
Few Clouds Few Clouds  
Wind Chill: 24°   Ceiling: Unl
Heat Index: 32°   Visibility: 10mi
Dew Point: 20°   Wind: 9mph
Humidity: 61%   Direction: 330°NNW
Pressure: 30.15"   Gusts: NA
Location:  38.95°N, 77.53°W
Report Text: KIAD 181152Z 33008KT 10SM FEW050 00/M07 A3015 RMK AO2 SLP211 T00001067 10022 20000 53010
Loading
Personal Weather Stations






























Interactive Weather Map New forecast layout! Learn more

10-Day Weather Forecast

Advertisements
Track Severe Weather on mobile